Terminal Aerodrome Forecast
Issued by NWS

Home | Current Version | Previous Version | Text Only | Print | Product List | Glossary Off
Versions: 1 2 3 4 5 6 7 8 9 10 11 12 13 14 15 16

000
FTUS43 KMPX 040520
TAFAXN
TAF
KAXN 040520Z 0406/0506 VRB03KT 2SM BR HZ OVC035
     FM040800 VRB03KT 1SM BR HZ BKN250
      TEMPO 0409/0413 1/2SM FG HZ
     FM041400 15006KT 3SM HZ SCT040 BKN250
     FM041800 18009KT 6SM HZ BKN250=

USA.gov is the U.S. government's official web portal to all federal, state and local government web resources and services.